Time;durP1;ratioP1;P1;durP2;ratioP2;P2;SDS_P1;SDS_P2;PMS_P1;PMS_P2;Temp;Humidity;BMP_temperature;BMP_pressure;BME280_temperature;BME280_humidity;BME280_pressure;Samples;Min_cycle;Max_cycle;Signal;HPM_P1;HPM_P2
2021/08/19 00:01:26;;;;;;;12.45;6.88;;;;;;;22.77;72.52;100173.75;5031034;28;20029;-72
2021/08/19 00:03:52;;;;;;;12.55;7.13;;;;;;;22.64;72.75;100176.63;5031494;28;20111;-71
2021/08/19 00:06:17;;;;;;;11.63;6.63;;;;;;;22.71;73.27;100184.38;5031096;28;20036;-72
2021/08/19 00:08:43;;;;;;;10.50;6.40;;;;;;;22.64;75.64;100184.50;5031214;28;20045;-72
2021/08/19 00:11:09;;;;;;;10.05;6.72;;;;;;;21.88;76.41;100189.19;5030870;28;20046;-71
2021/08/19 00:13:35;;;;;;;8.55;6.40;;;;;;;21.46;77.44;100189.69;5013183;28;20438;-72
2021/08/19 00:16:01;;;;;;;10.23;6.85;;;;;;;21.15;81.40;100200.56;5030821;28;20037;-70
2021/08/19 00:18:27;;;;;;;10.85;6.90;;;;;;;20.95;81.69;100194.66;5031344;28;20494;-72
2021/08/19 00:20:53;;;;;;;13.40;7.35;;;;;;;20.62;84.18;100197.56;5030765;28;20041;-72
2021/08/19 00:23:18;;;;;;;13.98;6.68;;;;;;;20.45;84.62;100178.47;5031017;28;20037;-73
2021/08/19 00:25:44;;;;;;;11.93;7.82;;;;;;;20.76;85.03;100212.31;5032499;28;20058;-70
2021/08/19 00:28:10;;;;;;;12.20;7.53;;;;;;;20.42;86.45;100210.81;5034643;28;20033;-71
2021/08/19 00:30:36;;;;;;;13.68;7.85;;;;;;;20.56;85.71;100204.59;5034336;28;20045;-72
2021/08/19 00:33:02;;;;;;;9.88;7.22;;;;;;;20.55;85.53;100171.38;5034802;28;20038;-71
2021/08/19 00:35:27;;;;;;;11.65;7.45;;;;;;;20.85;85.79;100214.88;5034692;28;20051;-72
2021/08/19 00:37:53;;;;;;;13.35;8.35;;;;;;;20.30;87.13;100177.72;5034593;28;20033;-72
2021/08/19 00:40:18;;;;;;;12.27;7.53;;;;;;;20.85;86.43;100217.50;5034411;28;20038;-71
2021/08/19 00:42:44;;;;;;;14.48;8.20;;;;;;;21.04;84.94;100230.44;5034335;28;20068;-71
2021/08/19 00:45:11;;;;;;;13.70;7.82;;;;;;;21.14;85.10;100226.81;5034167;28;20034;-70
2021/08/19 00:47:38;;;;;;;12.07;7.20;;;;;;;21.25;83.91;100213.59;5034283;28;20053;-71
2021/08/19 00:50:04;;;;;;;13.48;7.72;;;;;;;21.38;84.08;100230.91;5034109;28;20071;-73
2021/08/19 00:52:31;;;;;;;10.98;7.57;;;;;;;21.42;83.31;100237.91;5034361;28;20100;-70
2021/08/19 00:54:58;;;;;;;11.60;7.88;;;;;;;20.87;84.19;100160.59;5033956;28;20594;-70
2021/08/19 00:57:24;;;;;;;14.05;8.32;;;;;;;21.45;84.24;100231.75;5016282;28;20033;-70
2021/08/19 00:59:52;;;;;;;10.48;7.28;;;;;;;21.48;83.42;100221.19;5033913;28;20478;-71
2021/08/19 01:02:20;;;;;;;9.98;7.60;;;;;;;21.50;82.96;100206.28;5034382;28;20052;-70
2021/08/19 01:04:46;;;;;;;12.63;7.65;;;;;;;21.52;83.09;100201.00;5016349;28;20042;-69
2021/08/19 01:07:12;;;;;;;11.52;8.20;;;;;;;21.65;83.27;100198.22;5034235;28;20056;-70
2021/08/19 01:09:39;;;;;;;14.68;7.72;;;;;;;21.79;83.38;100189.31;5033902;28;20029;-69
2021/08/19 01:12:05;;;;;;;13.35;7.35;;;;;;;21.84;81.82;100189.25;5033697;28;20551;-74
2021/08/19 01:14:32;;;;;;;10.48;7.07;;;;;;;21.81;80.69;100180.50;5033504;28;20041;-71
2021/08/19 01:16:57;;;;;;;11.82;7.22;;;;;;;21.41;81.51;100152.13;5033809;28;20072;-70
2021/08/19 01:19:23;;;;;;;14.27;7.55;;;;;;;21.59;82.74;100186.94;5033529;28;20080;-73
2021/08/19 01:21:50;;;;;;;13.15;7.53;;;;;;;21.45;84.36;100187.94;5033510;28;20035;-73
2021/08/19 01:24:16;;;;;;;10.27;7.57;;;;;;;21.33;83.65;100153.97;5033718;28;20493;-70
2021/08/19 01:26:42;;;;;;;10.35;7.65;;;;;;;21.53;84.13;100173.84;5033513;28;20037;-71
2021/08/19 01:29:08;;;;;;;11.05;7.65;;;;;;;21.49;83.28;100176.50;5033245;28;20029;-72
2021/08/19 01:31:35;;;;;;;9.27;7.15;;;;;;;21.39;83.13;100156.50;5033876;28;20099;-70
2021/08/19 01:34:00;;;;;;;14.13;8.20;;;;;;;21.33;84.42;100156.59;5016020;28;20474;-70
2021/08/19 01:36:26;;;;;;;9.70;7.43;;;;;;;21.33;84.31;100159.22;5032363;28;20052;-70
2021/08/19 01:38:52;;;;;;;12.32;7.55;;;;;;;21.29;83.79;100147.88;5033383;28;20100;-71
2021/08/19 01:41:18;;;;;;;9.95;7.68;;;;;;;21.09;84.93;100173.50;5033478;28;20124;-71
2021/08/19 01:43:48;;;;;;;10.88;7.57;;;;;;;20.84;87.01;100168.53;5033391;28;20146;-70
2021/08/19 01:46:18;;;;;;;13.13;7.90;;;;;;;20.71;88.32;100174.75;5033457;28;20029;-71
2021/08/19 01:48:45;;;;;;;11.85;7.68;;;;;;;20.65;87.56;100171.28;5033237;28;20095;-72
2021/08/19 01:51:13;;;;;;;10.05;8.07;;;;;;;20.97;87.43;100174.50;5033234;28;20038;-70
2021/08/19 01:53:41;;;;;;;14.30;8.93;;;;;;;20.26;91.36;100177.75;5033100;28;20121;-72
2021/08/19 01:56:06;;;;;;;13.20;8.45;;;;;;;19.99;94.52;100190.19;5014984;28;20033;-70
2021/08/19 01:58:31;;;;;;;13.10;9.00;;;;;;;20.29;93.83;100172.50;5033250;28;20037;-71
2021/08/19 02:00:57;;;;;;;15.80;8.70;;;;;;;20.60;91.49;100174.81;5032993;28;20084;-70
2021/08/19 02:03:22;;;;;;;14.20;7.95;;;;;;;20.71;89.31;100173.03;5032859;28;20029;-75
2021/08/19 02:05:48;;;;;;;11.57;7.03;;;;;;;20.70;87.74;100173.88;5032826;28;20120;-71
2021/08/19 02:08:15;;;;;;;10.50;6.88;;;;;;;20.81;86.70;100171.16;5033084;28;20044;-71
2021/08/19 02:10:42;;;;;;;11.75;7.70;;;;;;;20.98;84.93;100153.47;5032823;28;20037;-75
2021/08/19 02:13:07;;;;;;;11.20;7.28;;;;;;;21.23;84.62;100157.59;5029496;28;20045;-71
2021/08/19 02:15:33;;;;;;;13.55;7.60;;;;;;;21.39;84.49;100146.00;5032770;28;20040;-71
2021/08/19 02:17:58;;;;;;;9.98;6.60;;;;;;;21.44;83.56;100146.81;5032766;28;20462;-71
2021/08/19 02:20:24;;;;;;;11.43;7.03;;;;;;;21.65;82.89;100156.19;5032560;28;20448;-71
2021/08/19 02:22:50;;;;;;;13.35;7.45;;;;;;;21.83;81.98;100150.72;5032361;28;20041;-75
2021/08/19 02:25:17;;;;;;;12.63;8.30;;;;;;;21.61;82.41;100114.25;5001106;28;20145;-70
2021/08/19 02:27:43;;;;;;;12.35;7.53;;;;;;;21.87;82.26;100134.88;4993287;28;20511;-70
2021/08/19 02:30:10;;;;;;;13.18;8.07;;;;;;;22.01;82.37;100154.81;4993011;28;20040;-71
2021/08/19 02:32:35;;;;;;;12.00;7.60;;;;;;;22.06;82.27;100153.84;4993090;28;20030;-72
2021/08/19 02:35:01;;;;;;;13.75;7.47;;;;;;;22.08;81.48;100149.47;4992932;28;20092;-71
2021/08/19 02:37:27;;;;;;;9.63;6.97;;;;;;;22.09;81.39;100156.47;4992855;28;20054;-71
2021/08/19 02:39:53;;;;;;;10.68;8.00;;;;;;;22.18;80.47;100159.81;4992994;28;20452;-71
2021/08/19 02:42:19;;;;;;;11.52;7.43;;;;;;;21.90;80.38;100119.06;4992775;28;20066;-71
2021/08/19 02:44:44;;;;;;;11.77;7.93;;;;;;;21.89;80.23;100133.09;5007918;28;20046;-74
2021/08/19 02:47:10;;;;;;;11.57;9.18;;;;;;;22.10;80.98;100171.31;4992265;28;20034;-71
2021/08/19 02:49:35;;;;;;;11.80;8.88;;;;;;;21.80;81.38;100134.09;4992507;28;20107;-78
2021/08/19 02:52:01;;;;;;;11.98;8.98;;;;;;;21.96;81.63;100170.66;4992635;28;20031;-71
2021/08/19 02:54:26;;;;;;;12.40;9.27;;;;;;;21.79;82.22;100171.78;4992429;28;20037;-71
2021/08/19 02:56:52;;;;;;;14.20;9.70;;;;;;;21.71;82.16;100167.50;4992846;28;20037;-71
2021/08/19 02:59:17;;;;;;;13.05;10.05;;;;;;;21.54;82.71;100168.56;4992471;28;20034;-72
2021/08/19 03:01:42;;;;;;;14.32;10.63;;;;;;;21.32;83.90;100168.88;4992525;28;20076;-71
2021/08/19 03:04:08;;;;;;;14.50;11.93;;;;;;;21.31;84.39;100163.63;4992412;28;20034;-71
2021/08/19 03:06:33;;;;;;;15.75;11.32;;;;;;;21.45;83.96;100164.31;4992626;28;20101;-73
2021/08/19 03:08:59;;;;;;;15.85;11.38;;;;;;;21.44;83.36;100177.47;4991983;28;20034;-71
2021/08/19 03:11:24;;;;;;;15.75;11.77;;;;;;;21.50;83.20;100178.25;4992554;28;20096;-71
2021/08/19 03:13:50;;;;;;;14.45;10.93;;;;;;;21.54;82.98;100184.34;4992882;28;20485;-74
2021/08/19 03:16:16;;;;;;;19.33;11.65;;;;;;;21.61;82.33;100180.78;4992571;28;20042;-72
2021/08/19 03:18:42;;;;;;;18.85;11.00;;;;;;;21.66;81.45;100172.84;4992197;28;20569;-70
2021/08/19 03:21:08;;;;;;;15.68;11.52;;;;;;;21.66;82.08;100183.34;4992419;28;20113;-72
2021/08/19 03:23:33;;;;;;;14.05;11.70;;;;;;;21.72;81.96;100182.38;4989778;28;20112;-71
2021/08/19 03:25:59;;;;;;;13.73;11.23;;;;;;;21.42;81.63;100152.97;5024246;28;20127;-71
2021/08/19 03:28:24;;;;;;;13.57;10.80;;;;;;;21.59;82.62;100181.69;5031382;28;20057;-70
2021/08/19 03:30:51;;;;;;;15.82;11.40;;;;;;;21.67;82.43;100173.69;5031451;28;20060;-72
2021/08/19 03:33:19;;;;;;;17.00;11.98;;;;;;;21.68;81.82;100194.69;5031348;28;20041;-71
2021/08/19 03:35:45;;;;;;;16.70;11.30;;;;;;;21.60;81.64;100188.69;5031259;28;20056;-72
2021/08/19 03:38:11;;;;;;;15.75;10.80;;;;;;;21.52;82.14;100182.63;5031006;28;20068;-72
2021/08/19 03:40:36;;;;;;;15.55;11.40;;;;;;;21.64;81.86;100187.75;5031507;28;20064;-70
2021/08/19 03:43:02;;;;;;;12.88;10.30;;;;;;;21.55;81.64;100195.72;5026923;28;20034;-72
2021/08/19 03:45:28;;;;;;;13.90;10.85;;;;;;;21.40;81.44;100160.03;5028898;28;20491;-71
2021/08/19 03:47:54;;;;;;;17.70;11.05;;;;;;;21.55;81.44;100191.34;5031233;28;20044;-72
2021/08/19 03:50:19;;;;;;;17.02;11.23;;;;;;;21.62;80.83;100208.78;5031107;28;20034;-70
2021/08/19 03:52:45;;;;;;;18.52;10.85;;;;;;;21.71;81.20;100207.81;5030943;28;20057;-71
2021/08/19 03:55:11;;;;;;;17.73;10.40;;;;;;;21.70;80.83;100203.44;5031475;28;20359;-72
2021/08/19 03:57:37;;;;;;;17.10;10.10;;;;;;;21.66;81.52;100196.50;5031323;28;20104;-71
2021/08/19 04:00:04;;;;;;;15.93;10.45;;;;;;;21.59;81.79;100197.44;5032869;28;20033;-71
2021/08/19 04:02:29;;;;;;;19.33;9.70;;;;;;;21.57;82.76;100210.63;5000081;28;20049;-71
2021/08/19 04:04:55;;;;;;;19.17;11.80;;;;;;;21.30;83.56;100219.66;5035073;28;20372;-74
2021/08/19 04:07:20;;;;;;;17.30;11.05;;;;;;;21.12;84.71;100207.59;5034795;28;20033;-70
2021/08/19 04:09:45;;;;;;;15.43;12.18;;;;;;;21.28;84.71;100203.03;5035095;28;20041;-71
2021/08/19 04:12:11;;;;;;;16.83;11.23;;;;;;;21.31;84.67;100201.25;5035246;28;20033;-71
2021/08/19 04:14:36;;;;;;;14.43;10.82;;;;;;;21.38;84.19;100211.69;5035056;28;20042;-71
2021/08/19 04:17:02;;;;;;;20.98;11.88;;;;;;;21.04;85.68;100205.06;5034974;28;20037;-70
2021/08/19 04:19:27;;;;;;;13.25;10.63;;;;;;;21.08;84.94;100205.88;5035060;28;20037;-71
2021/08/19 04:21:53;;;;;;;16.45;10.95;;;;;;;21.17;85.52;100209.28;5034538;28;20419;-75
2021/08/19 04:24:19;;;;;;;14.95;10.88;;;;;;;21.05;85.53;100174.41;5034777;28;20037;-70
2021/08/19 04:26:44;;;;;;;16.95;12.45;;;;;;;21.24;85.59;100214.47;5017236;28;20060;-71
2021/08/19 04:29:10;;;;;;;18.50;12.85;;;;;;;21.21;86.15;100218.00;5034763;28;20053;-71
2021/08/19 04:31:35;;;;;;;14.80;11.20;;;;;;;21.08;85.03;100183.13;5034537;28;20419;-72
2021/08/19 04:34:03;;;;;;;15.30;12.32;;;;;;;21.36;84.03;100214.34;5034785;28;20039;-71
2021/08/19 04:36:29;;;;;;;17.08;13.02;;;;;;;21.18;84.52;100170.78;5034655;28;20456;-71
2021/08/19 04:38:54;;;;;;;17.17;12.50;;;;;;;21.43;84.45;100221.25;5034523;28;20073;-70
2021/08/19 04:41:19;;;;;;;16.35;12.75;;;;;;;21.48;83.70;100221.19;5034772;28;20039;-72
2021/08/19 04:44:05;;;;;;;14.30;11.60;;;;;;;21.20;82.35;100186.50;4992721;28;20488;-71
2021/08/19 04:46:31;;;;;;;19.75;11.63;;;;;;;21.47;82.80;100232.56;4992763;28;20169;-71
2021/08/19 04:48:59;;;;;;;15.15;11.98;;;;;;;21.29;82.98;100189.03;4992395;28;20451;-71
2021/08/19 04:51:24;;;;;;;16.50;10.95;;;;;;;21.28;84.22;100182.03;4992707;28;20424;-70
2021/08/19 04:53:49;;;;;;;15.50;11.07;;;;;;;21.59;83.70;100228.97;4992578;28;20096;-70
2021/08/19 04:56:15;;;;;;;14.30;10.60;;;;;;;21.40;83.65;100207.28;4992599;28;20045;-72
2021/08/19 04:58:41;;;;;;;19.15;11.35;;;;;;;21.44;84.99;100219.50;4960005;28;20420;-72
2021/08/19 05:01:06;;;;;;;15.23;11.48;;;;;;;21.51;85.49;100223.78;4976165;28;20065;-71
2021/08/19 05:03:31;;;;;;;17.10;11.35;;;;;;;21.35;84.53;100194.22;4992198;28;20050;-72
2021/08/19 05:05:57;;;;;;;12.25;10.57;;;;;;;21.55;84.66;100227.25;4992334;28;20034;-72
2021/08/19 05:08:23;;;;;;;14.90;13.25;;;;;;;21.54;85.72;100230.75;4992495;28;20038;-72
2021/08/19 05:10:48;;;;;;;16.50;12.82;;;;;;;21.60;86.12;100239.47;4991877;28;20042;-72
2021/08/19 05:13:14;;;;;;;17.60;12.38;;;;;;;21.44;86.28;100219.50;4992263;28;20463;-74
2021/08/19 05:15:39;;;;;;;16.80;12.55;;;;;;;21.56;86.26;100235.13;5022867;28;20037;-70
2021/08/19 05:18:04;;;;;;;14.05;12.55;;;;;;;21.64;86.31;100250.78;5033835;28;20033;-75
2021/08/19 05:20:30;;;;;;;16.52;12.10;;;;;;;21.69;86.20;100248.97;5034172;28;20037;-72
2021/08/19 05:22:55;;;;;;;15.23;12.15;;;;;;;21.76;85.75;100261.16;5033617;28;20438;-72
2021/08/19 05:25:21;;;;;;;15.60;11.65;;;;;;;21.77;85.16;100260.28;5033689;28;20529;-71
2021/08/19 05:27:46;;;;;;;14.48;11.02;;;;;;;21.71;84.50;100257.72;5033753;28;20037;-72
2021/08/19 05:30:12;;;;;;;17.17;11.25;;;;;;;21.25;84.80;100268.72;5033519;28;20084;-71
2021/08/19 05:32:37;;;;;;;13.93;10.80;;;;;;;21.11;86.70;100263.59;5033497;28;20399;-71
2021/08/19 05:35:04;;;;;;;13.68;11.40;;;;;;;21.16;86.66;100267.94;5015910;28;20036;-72
2021/08/19 05:37:30;;;;;;;14.07;10.73;;;;;;;21.06;86.61;100266.28;5033540;28;20053;-75
2021/08/19 05:39:55;;;;;;;17.85;12.05;;;;;;;20.89;88.07;100273.44;5033455;28;20045;-71
2021/08/19 05:42:21;;;;;;;15.82;11.88;;;;;;;20.72;88.64;100268.31;5033323;28;20099;-71
2021/08/19 05:44:46;;;;;;;18.20;12.73;;;;;;;20.78;88.45;100278.78;5033312;28;20407;-72
2021/08/19 05:47:12;;;;;;;17.95;12.93;;;;;;;20.94;87.78;100271.66;5033161;28;20436;-73
2021/08/19 05:49:41;;;;;;;16.10;12.38;;;;;;;21.04;88.86;100275.06;5033097;28;20427;-72
2021/08/19 05:52:08;;;;;;;16.15;12.65;;;;;;;21.19;87.55;100284.53;5033384;28;20061;-72
2021/08/19 05:54:35;;;;;;;16.83;12.15;;;;;;;21.21;87.05;100274.88;5032343;28;20049;-72
2021/08/19 05:57:01;;;;;;;14.65;13.00;;;;;;;21.39;87.31;100282.56;5033186;28;20034;-72
2021/08/19 05:59:26;;;;;;;17.88;12.38;;;;;;;21.51;87.64;100284.19;5033039;28;20408;-70
2021/08/19 06:01:52;;;;;;;16.25;12.52;;;;;;;21.68;85.58;100288.41;5032681;28;20034;-74
2021/08/19 06:04:18;;;;;;;16.05;12.70;;;;;;;21.89;84.27;100282.03;5033296;28;20047;-70
2021/08/19 06:06:44;;;;;;;13.43;11.32;;;;;;;21.97;83.52;100283.66;4997989;28;20492;-71
2021/08/19 06:09:09;;;;;;;16.33;11.77;;;;;;;22.02;83.02;100285.34;5032939;28;20041;-70
2021/08/19 06:11:35;;;;;;;13.68;11.77;;;;;;;21.98;82.85;100292.41;5032646;28;20025;-70
2021/08/19 06:14:00;;;;;;;15.93;12.05;;;;;;;21.55;83.69;100290.28;5032668;28;20472;-72
2021/08/19 06:16:26;;;;;;;17.77;13.20;;;;;;;21.44;85.48;100293.88;5032250;28;20036;-72
2021/08/19 06:18:51;;;;;;;14.90;12.32;;;;;;;21.63;85.49;100291.09;5033056;28;20041;-73
2021/08/19 06:21:16;;;;;;;17.55;13.68;;;;;;;21.56;83.41;100294.66;5032545;28;20044;-75
2021/08/19 06:23:42;;;;;;;14.10;12.60;;;;;;;21.20;84.01;100296.75;5032135;28;20411;-70
2021/08/19 06:26:08;;;;;;;18.60;13.88;;;;;;;21.31;84.87;100297.53;5014663;28;20500;-71
2021/08/19 06:28:35;;;;;;;21.23;14.75;;;;;;;21.54;83.45;100299.91;5032357;28;20129;-72
2021/08/19 06:31:00;;;;;;;18.38;14.57;;;;;;;21.67;78.85;100290.19;5014362;28;20045;-71
2021/08/19 06:33:26;;;;;;;23.52;15.00;;;;;;;21.76;79.45;100289.22;5032511;28;20474;-71
2021/08/19 06:35:51;;;;;;;19.75;12.40;;;;;;;21.68;76.79;100241.97;5032529;28;20396;-74
2021/08/19 06:38:17;;;;;;;18.85;12.80;;;;;;;21.99;76.45;100262.59;5032347;28;20042;-72
2021/08/19 06:40:43;;;;;;;22.38;13.75;;;;;;;22.29;77.04;100299.88;5032224;28;20422;-71
2021/08/19 06:43:08;;;;;;;21.02;11.75;;;;;;;22.31;74.43;100292.84;5032173;28;20037;-70
2021/08/19 06:45:34;;;;;;;15.52;12.05;;;;;;;22.32;74.67;100289.34;5032237;28;20427;-72
2021/08/19 06:47:59;;;;;;;12.35;8.55;;;;;;;22.49;71.24;100296.13;5031933;28;20108;-72
2021/08/19 06:50:25;;;;;;;12.80;9.15;;;;;;;22.60;70.82;100289.81;5032086;28;20456;-71
2021/08/19 06:52:50;;;;;;;13.85;8.88;;;;;;;22.85;69.87;100288.53;5031948;28;20480;-70
2021/08/19 06:55:16;;;;;;;11.90;9.10;;;;;;;22.81;70.29;100302.66;5031961;28;20040;-71
2021/08/19 06:57:41;;;;;;;11.55;8.65;;;;;;;22.93;70.76;100294.56;5032132;28;20038;-71
2021/08/19 07:00:09;;;;;;;15.15;9.05;;;;;;;23.06;69.32;100303.97;5031682;28;20483;-73
2021/08/19 07:02:35;;;;;;;12.77;9.00;;;;;;;23.25;69.37;100308.94;4996743;28;20041;-74
2021/08/19 07:05:01;;;;;;;16.27;9.60;;;;;;;23.26;71.47;100315.94;5031853;28;20041;-72
2021/08/19 07:07:28;;;;;;;10.88;7.70;;;;;;;22.98;68.85;100310.25;5031906;28;20499;-71
2021/08/19 07:09:59;;;;;;;13.57;7.90;;;;;;;23.07;67.27;100320.66;5031625;28;20041;-72
2021/08/19 07:12:24;;;;;;;17.50;8.57;;;;;;;22.83;68.34;100301.75;5031515;28;20524;-70
2021/08/19 07:14:50;;;;;;;10.23;6.57;;;;;;;23.06;65.26;100303.09;5031706;28;20045;-72
2021/08/19 07:17:16;;;;;;;10.90;5.90;;;;;;;23.39;60.40;100311.31;5031098;28;20087;-78
2021/08/19 07:19:41;;;;;;;7.20;4.72;;;;;;;23.57;57.10;100304.84;5013000;28;20598;-72
2021/08/19 07:22:07;;;;;;;7.40;4.88;;;;;;;23.55;60.79;100307.50;5031468;28;20041;-70
2021/08/19 07:24:32;;;;;;;6.53;4.25;;;;;;;23.39;58.84;100306.94;5013911;28;20515;-71
2021/08/19 07:26:58;;;;;;;10.13;4.88;;;;;;;23.37;59.02;100313.13;5031409;28;20048;-71
2021/08/19 07:29:23;;;;;;;8.63;4.75;;;;;;;23.47;56.32;100301.50;5031360;28;20038;-70
2021/08/19 07:31:48;;;;;;;9.10;5.30;;;;;;;23.48;59.03;100308.53;5013970;28;20034;-71
2021/08/19 07:34:14;;;;;;;11.35;5.25;;;;;;;23.38;56.62;100270.94;5031458;28;20040;-70
2021/08/19 07:36:40;;;;;;;7.65;4.55;;;;;;;23.60;56.14;100312.66;5029802;28;22114;-71
2021/08/19 07:39:05;;;;;;;7.38;4.90;;;;;;;23.69;55.23;100314.25;5027432;28;20033;-71
2021/08/19 07:41:33;;;;;;;8.38;4.57;;;;;;;23.56;54.87;100272.38;5011167;28;20084;-71
2021/08/19 07:43:59;;;;;;;9.43;4.13;;;;;;;23.64;53.67;100301.19;5030660;28;20060;-70
2021/08/19 07:46:25;;;;;;;10.30;4.28;;;;;;;23.81;53.53;100318.44;5026943;28;20509;-70
2021/08/19 07:48:50;;;;;;;6.43;4.53;;;;;;;23.95;54.80;100323.44;5031167;28;20026;-70
2021/08/19 07:51:16;;;;;;;6.30;4.03;;;;;;;23.84;52.84;100307.81;5031096;28;20475;-70
2021/08/19 07:53:43;;;;;;;7.63;4.40;;;;;;;23.86;53.73;100316.56;5030925;28;20033;-71
2021/08/19 07:56:09;;;;;;;6.60;4.53;;;;;;;23.67;54.48;100269.50;5026880;28;20095;-70
2021/08/19 07:58:34;;;;;;;7.13;4.55;;;;;;;24.01;53.26;100307.50;5030991;28;20083;-70
2021/08/19 08:01:00;;;;;;;6.35;3.85;;;;;;;23.86;51.76;100316.56;5030484;28;20463;-77
2021/08/19 08:03:26;;;;;;;8.73;3.95;;;;;;;23.93;52.80;100314.72;5030490;28;20029;-70
2021/08/19 08:05:52;;;;;;;8.45;3.67;;;;;;;24.09;50.84;100305.56;5030903;28;20121;-70
2021/08/19 08:08:17;;;;;;;7.82;3.45;;;;;;;24.20;50.05;100305.31;5030867;28;20076;-70
2021/08/19 08:10:43;;;;;;;6.57;3.55;;;;;;;24.15;48.74;100297.53;5030455;28;20045;-70
2021/08/19 08:13:11;;;;;;;8.27;3.72;;;;;;;24.16;48.53;100295.75;5030371;28;20064;-72
2021/08/19 08:15:38;;;;;;;7.07;3.95;;;;;;;24.29;48.80;100305.13;5025792;28;20124;-75
2021/08/19 08:18:04;;;;;;;7.00;3.42;;;;;;;24.55;47.30;100303.66;5030555;28;20088;-73
2021/08/19 08:20:30;;;;;;;7.78;3.53;;;;;;;24.73;48.21;100294.44;5012421;28;20022;-74
2021/08/19 08:22:55;;;;;;;5.50;3.40;;;;;;;24.89;49.09;100294.94;5030080;28;20566;-72
2021/08/19 08:25:21;;;;;;;6.20;3.40;;;;;;;25.14;45.92;100296.97;5030542;28;20049;-70
2021/08/19 08:28:20;;;;;;;5.28;3.80;;;;;;;25.34;44.29;100280.56;5029731;28;20067;-72
2021/08/19 08:30:51;;;;;;;4.97;3.25;;;;;;;25.54;43.20;100290.59;5028405;28;20029;-73
2021/08/19 08:33:17;;;;;;;7.15;3.75;;;;;;;25.76;44.46;100290.88;5030553;28;20033;-73
2021/08/19 08:35:44;;;;;;;8.38;3.80;;;;;;;25.47;47.51;100259.97;5030686;28;20376;-73
2021/08/19 08:38:14;;;;;;;6.53;3.63;;;;;;;25.55;45.21;100281.78;5030186;28;20507;-73
2021/08/19 08:40:42;;;;;;;6.18;4.15;;;;;;;25.34;46.76;100255.00;5027444;28;20511;-76
2021/08/19 08:43:09;;;;;;;7.38;4.00;;;;;;;25.33;45.41;100286.75;5030921;28;20033;-71
2021/08/19 08:45:35;;;;;;;7.63;3.17;;;;;;;25.32;45.15;100285.00;5009492;28;20056;-74
2021/08/19 08:48:03;;;;;;;8.45;3.72;;;;;;;25.40;46.23;100291.00;5029329;28;20120;-73
2021/08/19 08:50:29;;;;;;;5.30;3.67;;;;;;;25.59;42.75;100286.06;5030977;28;20045;-74
2021/08/19 08:53:00;;;;;;;5.30;3.65;;;;;;;25.87;44.17;100287.03;5033215;28;20095;-70
2021/08/19 08:55:26;;;;;;;5.75;3.75;;;;;;;25.73;46.94;100287.44;4997686;28;20041;-72
2021/08/19 08:57:54;;;;;;;8.63;4.40;;;;;;;25.50;43.60;100266.03;5031441;28;20037;-71
2021/08/19 09:00:20;;;;;;;7.90;3.88;;;;;;;25.54;44.40;100266.81;5033708;28;20132;-71
2021/08/19 09:02:45;;;;;;;8.82;3.92;;;;;;;25.82;43.49;100277.47;5032521;28;20566;-72
2021/08/19 09:05:25;;;;;;;10.93;3.95;;;;;;;25.94;43.78;100278.88;5033788;28;20480;-74
2021/08/19 09:07:52;;;;;;;;;;;;;;;25.99;45.81;100284.91;5032744;28;20045;-74
2021/08/19 09:10:19;;;;;;;8.77;3.47;;;;;;;26.06;41.34;100280.31;5029199;28;19920;-74
2021/08/19 09:12:45;;;;;;;4.85;3.38;;;;;;;25.93;44.07;100244.53;5033787;28;20033;-74
2021/08/19 09:15:13;;;;;;;5.35;3.85;;;;;;;26.29;44.19;100284.03;5033556;28;20108;-74
2021/08/19 09:17:42;;;;;;;7.47;4.05;;;;;;;26.58;45.83;100280.47;5033332;28;20396;-75
2021/08/19 09:20:09;;;;;;;5.68;3.95;;;;;;;26.77;40.58;100279.88;5016029;28;20037;-72
2021/08/19 09:22:53;;;;;;;9.20;4.05;;;;;;;26.96;39.81;100275.69;5033778;28;20041;-74
2021/08/19 09:25:35;;;;;;;4.60;3.63;;;;;;;27.07;39.28;100275.31;5033853;28;20552;-74
2021/08/19 09:28:15;;;;;;;4.28;3.28;;;;;;;27.07;39.78;100269.16;5033070;28;20091;-69
2021/08/19 09:30:53;;;;;;;6.72;3.78;;;;;;;26.64;40.81;100276.72;5033490;28;20103;-74
2021/08/19 09:33:22;;;;;;;6.75;3.70;;;;;;;27.00;44.04;100275.59;5033132;28;20487;-74
2021/08/19 09:35:49;;;;;;;9.93;4.13;;;;;;;27.19;40.25;100271.38;5033206;28;20026;-72
2021/08/19 09:38:19;;;;;;;5.35;3.58;;;;;;;27.41;39.58;100273.28;5039731;28;20029;-72
2021/08/19 09:41:07;;;;;;;6.45;3.60;;;;;;;27.43;39.38;100276.75;5030052;28;20056;-70
2021/08/19 09:43:43;;;;;;;6.63;4.05;;;;;;;26.76;37.40;100262.25;5025227;28;20435;-70
2021/08/19 09:46:11;;;;;;;6.55;3.85;;;;;;;26.46;40.01;100230.56;5025120;28;20034;-70
2021/08/19 09:48:37;;;;;;;4.88;3.50;;;;;;;26.88;40.78;100264.50;5019961;28;20053;-77
2021/08/19 09:51:19;;;;;;;8.63;3.28;;;;;;;26.99;39.91;100261.44;5022162;28;20559;-71
2021/08/19 09:53:53;;;;;;;7.85;3.67;;;;;;;27.14;41.10;100265.34;5023214;28;20456;-74
2021/08/19 09:56:34;;;;;;;5.47;3.33;;;;;;;27.43;40.25;100251.09;5015696;28;20034;-71
2021/08/19 09:59:20;;;;;;;7.03;3.78;;;;;;;27.48;38.37;100258.00;5028682;28;20120;-70
2021/08/19 10:01:47;;;;;;;4.97;3.60;;;;;;;27.46;38.32;100250.13;5016208;28;20617;-71
2021/08/19 10:04:13;;;;;;;5.47;3.65;;;;;;;27.73;37.96;100247.38;5015492;28;20074;-69
2021/08/19 10:06:39;;;;;;;10.20;3.88;;;;;;;27.91;38.13;100243.13;5015081;28;20479;-68
2021/08/19 10:09:04;;;;;;;5.65;3.30;;;;;;;28.20;37.05;100246.44;5012665;28;20076;-67
2021/08/19 10:11:33;;;;;;;9.18;3.60;;;;;;;28.52;37.00;100237.16;5025301;28;20057;-68
2021/08/19 10:14:00;;;;;;;5.30;3.30;;;;;;;28.73;36.90;100238.06;5010979;28;20042;-69
2021/08/19 10:16:29;;;;;;;5.88;3.30;;;;;;;28.80;37.50;100214.78;5031251;28;20499;-68
2021/08/19 10:18:56;;;;;;;5.50;3.38;;;;;;;29.03;35.91;100228.88;5030731;28;20046;-68
2021/08/19 10:21:22;;;;;;;38.50;26.10;;;;;;;29.27;35.28;100234.88;5013139;28;20091;-68
2021/08/19 10:23:49;;;;;;;12.15;6.30;;;;;;;29.34;38.01;100240.81;5030072;28;20033;-68
2021/08/19 10:26:19;;;;;;;5.07;3.53;;;;;;;29.43;31.89;100229.75;5030941;28;20068;-67
2021/08/19 10:28:49;;;;;;;9.65;4.13;;;;;;;29.67;32.03;100230.44;4993557;28;20103;-70
2021/08/19 10:31:48;;;;;;;7.57;4.05;;;;;;;29.87;32.27;100228.66;5030308;28;20041;-68
2021/08/19 10:34:38;;;;;;;10.65;3.90;;;;;;;29.43;31.56;100229.75;4949555;29;20035;-68
2021/08/19 10:37:03;;;;;;;21.48;5.80;;;;;;;29.60;33.79;100231.66;4949387;29;20035;-70
2021/08/19 10:39:30;;;;;;;6.32;3.60;;;;;;;29.77;32.35;100219.34;4948237;29;20485;-70
2021/08/19 10:41:56;;;;;;;9.15;3.72;;;;;;;29.98;31.12;100214.84;4948152;28;20429;-68
2021/08/19 10:44:36;;;;;;;7.97;3.60;;;;;;;29.36;30.98;100207.06;4948996;28;20123;-70
2021/08/19 10:47:03;;;;;;;10.00;3.33;;;;;;;29.36;33.17;100221.22;4960043;29;20061;-69
2021/08/19 10:49:31;;;;;;;6.82;3.22;;;;;;;29.86;32.27;100222.44;4948851;29;20069;-68
2021/08/19 10:52:27;;;;;;;10.98;3.78;;;;;;;30.22;30.60;100212.78;4942330;29;20546;-72
2021/08/19 10:55:09;;;;;;;5.72;3.10;;;;;;;30.18;30.24;100206.75;4946881;29;20035;-69
2021/08/19 10:57:44;;;;;;;10.10;3.80;;;;;;;30.17;31.01;100172.22;4950201;29;20125;-72
2021/08/19 11:00:10;;;;;;;6.25;3.22;;;;;;;30.38;35.38;100207.56;4950915;29;20035;-72
2021/08/19 11:02:48;;;;;;;6.60;3.17;;;;;;;30.61;34.26;100208.22;4950886;29;20224;-71
2021/08/19 11:05:36;;;;;;;9.27;3.72;;;;;;;30.62;31.37;100207.28;4950420;29;20517;-69
2021/08/19 11:08:03;;;;;;;9.70;3.70;;;;;;;30.62;31.40;100205.47;4948810;28;20047;-71
2021/08/19 11:10:30;;;;;;;12.20;4.05;;;;;;;30.68;29.72;100201.66;4993269;28;20507;-71
2021/08/19 11:13:13;;;;;;;6.68;3.33;;;;;;;30.71;32.05;100198.81;5028637;28;20601;-69
2021/08/19 11:15:49;;;;;;;9.38;3.67;;;;;;;30.70;31.37;100190.91;5030500;28;20028;-71
2021/08/19 11:18:25;;;;;;;10.50;3.75;;;;;;;30.94;33.16;100207.41;5030196;28;20025;-72